N87JW KSDL-KLAS
Flight info
| Callsign | N87JW |
|---|---|
| Flight time | N/A |
| Altitude | 34000 |
| Route | MAYSA7 RRSTA ELLDA RKSTR4 |
| Aircraft | C750/M-SBDE3FGHRWXY/S |
Departure
| Time | 2026-05-06 16:02 |
|---|---|
| Airport | Scottsdale Airport (KSDL) |
Arrival
| Time | N/A |
|---|---|
| Airport | Harry Reid International Airport (KLAS) |
| Time | Latitude | Longitude | Altitude | Speed | Heading |
|---|---|---|---|---|---|
| 2026-05-06 15:40 | 33.61932 | -111.91721 | 1500 ft | 0 kts | 314° |
| 2026-05-06 15:50 | 33.61936 | -111.91726 | 1499 ft | 3 kts | 316° |
| 2026-05-06 15:50 | 33.61964 | -111.91729 | 1498 ft | 5 kts | 51° |
| 2026-05-06 15:50 | 33.61966 | -111.91712 | 1498 ft | 0 kts | 84° |
| 2026-05-06 15:50 | 33.61966 | -111.91708 | 1498 ft | 2 kts | 85° |
| 2026-05-06 15:51 | 33.61958 | -111.91689 | 1499 ft | 3 kts | 126° |
| 2026-05-06 15:51 | 33.61944 | -111.91669 | 1501 ft | 3 kts | 136° |
| 2026-05-06 15:51 | 33.61927 | -111.91647 | 1503 ft | 4 kts | 133° |
| 2026-05-06 15:51 | 33.61911 | -111.91618 | 1504 ft | 5 kts | 101° |
| 2026-05-06 15:52 | 33.61936 | -111.91575 | 1505 ft | 9 kts | 44° |
| 2026-05-06 15:52 | 33.61995 | -111.91506 | 1504 ft | 14 kts | 44° |
| 2026-05-06 15:52 | 33.62068 | -111.91423 | 1502 ft | 15 kts | 43° |
| 2026-05-06 15:52 | 33.62144 | -111.91337 | 1501 ft | 14 kts | 45° |
| 2026-05-06 15:53 | 33.62209 | -111.91260 | 1502 ft | 12 kts | 44° |
| 2026-05-06 15:53 | 33.62269 | -111.91191 | 1502 ft | 12 kts | 44° |
| 2026-05-06 15:53 | 33.62325 | -111.91127 | 1503 ft | 10 kts | 43° |
| 2026-05-06 15:53 | 33.62368 | -111.91077 | 1504 ft | 7 kts | 45° |
| 2026-05-06 15:54 | 33.62397 | -111.91044 | 1505 ft | 6 kts | 44° |
| 2026-05-06 15:54 | 33.62431 | -111.91006 | 1506 ft | 8 kts | 43° |
| 2026-05-06 15:54 | 33.62476 | -111.90953 | 1506 ft | 11 kts | 44° |
| 2026-05-06 15:54 | 33.62534 | -111.90887 | 1506 ft | 11 kts | 43° |
| 2026-05-06 15:55 | 33.62585 | -111.90829 | 1507 ft | 9 kts | 44° |
| 2026-05-06 15:55 | 33.62635 | -111.90769 | 1507 ft | 12 kts | 46° |
| 2026-05-06 15:55 | 33.62708 | -111.90685 | 1504 ft | 17 kts | 44° |
| 2026-05-06 15:55 | 33.62796 | -111.90581 | 1503 ft | 17 kts | 45° |
| 2026-05-06 15:56 | 33.62879 | -111.90486 | 1502 ft | 17 kts | 44° |
| 2026-05-06 15:56 | 33.62964 | -111.90389 | 1501 ft | 16 kts | 43° |
| 2026-05-06 15:56 | 33.63038 | -111.90304 | 1503 ft | 14 kts | 44° |
| 2026-05-06 15:56 | 33.63105 | -111.90227 | 1504 ft | 13 kts | 43° |
| 2026-05-06 15:57 | 33.63140 | -111.90180 | 1504 ft | 2 kts | 75° |
| 2026-05-06 15:57 | 33.63137 | -111.90166 | 1506 ft | 0 kts | 115° |
| 2026-05-06 15:59 | 33.63135 | -111.90161 | 1507 ft | 2 kts | 115° |
| 2026-05-06 16:00 | 33.63127 | -111.90150 | 1504 ft | 3 kts | 134° |
| 2026-05-06 16:00 | 33.63106 | -111.90127 | 1504 ft | 4 kts | 151° |
| 2026-05-06 16:00 | 33.63084 | -111.90136 | 1504 ft | 4 kts | 219° |
| 2026-05-06 16:00 | 33.63073 | -111.90148 | 1504 ft | 0 kts | 224° |
| 2026-05-06 16:01 | 33.63063 | -111.90160 | 1504 ft | 10 kts | 224° |
| 2026-05-06 16:01 | 33.62758 | -111.90511 | 1504 ft | 119 kts | 224° |
| 2026-05-06 16:01 | 33.62024 | -111.91361 | 1793 ft | 156 kts | 224° |
| 2026-05-06 16:02 | 33.61280 | -111.92349 | 2545 ft | 164 kts | 238° |
| 2026-05-06 16:02 | 33.61075 | -111.93709 | 3089 ft | 182 kts | 279° |
| 2026-05-06 16:02 | 33.61719 | -111.95068 | 3701 ft | 194 kts | 318° |
| 2026-05-06 16:02 | 33.62933 | -111.95758 | 4478 ft | 200 kts | 343° |
| 2026-05-06 16:03 | 33.64376 | -111.96219 | 5033 ft | 225 kts | 345° |
| 2026-05-06 16:03 | 33.65949 | -111.96720 | 5719 ft | 245 kts | 344° |
| 2026-05-06 16:03 | 33.67596 | -111.97535 | 6089 ft | 272 kts | 323° |
| 2026-05-06 16:03 | 33.68908 | -111.99161 | 7111 ft | 269 kts | 311° |
| 2026-05-06 16:04 | 33.70220 | -112.00794 | 8138 ft | 274 kts | 318° |
| 2026-05-06 16:04 | 33.71702 | -112.02256 | 9217 ft | 277 kts | 324° |
| 2026-05-06 16:04 | 33.73232 | -112.03685 | 10204 ft | 281 kts | 323° |
| 2026-05-06 16:04 | 33.74797 | -112.05245 | 10576 ft | 305 kts | 321° |
| 2026-05-06 16:05 | 33.76486 | -112.06978 | 10655 ft | 333 kts | 321° |
| 2026-05-06 16:05 | 33.78310 | -112.08816 | 11077 ft | 345 kts | 322° |
| 2026-05-06 16:05 | 33.80159 | -112.10658 | 11899 ft | 346 kts | 321° |
| 2026-05-06 16:05 | 33.82018 | -112.12522 | 12620 ft | 351 kts | 321° |
| 2026-05-06 16:06 | 33.83877 | -112.14396 | 13322 ft | 355 kts | 321° |
| 2026-05-06 16:06 | 33.85780 | -112.16311 | 14020 ft | 358 kts | 321° |
| 2026-05-06 16:06 | 33.87703 | -112.18244 | 14639 ft | 362 kts | 321° |
| 2026-05-06 16:06 | 33.89650 | -112.20203 | 15236 ft | 366 kts | 321° |
| 2026-05-06 16:07 | 33.91618 | -112.22186 | 15860 ft | 371 kts | 321° |
| 2026-05-06 16:07 | 33.93606 | -112.24191 | 16505 ft | 375 kts | 321° |
| 2026-05-06 16:07 | 33.95620 | -112.26222 | 17168 ft | 379 kts | 321° |
| 2026-05-06 16:07 | 33.97652 | -112.28272 | 17834 ft | 383 kts | 321° |
| 2026-05-06 16:08 | 33.99716 | -112.30357 | 18486 ft | 388 kts | 321° |
| 2026-05-06 16:08 | 34.01795 | -112.32458 | 19128 ft | 391 kts | 322° |
| 2026-05-06 16:08 | 34.03887 | -112.34572 | 19776 ft | 395 kts | 322° |
| 2026-05-06 16:08 | 34.06013 | -112.36704 | 20435 ft | 398 kts | 322° |
| 2026-05-06 16:09 | 34.08156 | -112.38847 | 21068 ft | 402 kts | 323° |
| 2026-05-06 16:09 | 34.10286 | -112.40986 | 21728 ft | 405 kts | 323° |
| 2026-05-06 16:09 | 34.12459 | -112.43174 | 22384 ft | 409 kts | 323° |
| 2026-05-06 16:09 | 34.14663 | -112.45394 | 23013 ft | 413 kts | 323° |
| 2026-05-06 16:10 | 34.16880 | -112.47624 | 23644 ft | 417 kts | 324° |
| 2026-05-06 16:10 | 34.19116 | -112.49875 | 24170 ft | 420 kts | 323° |
| 2026-05-06 16:10 | 34.21366 | -112.52146 | 24685 ft | 424 kts | 323° |
| 2026-05-06 16:10 | 34.23640 | -112.54442 | 25201 ft | 427 kts | 323° |
| 2026-05-06 16:11 | 34.25931 | -112.56755 | 25729 ft | 430 kts | 323° |
| 2026-05-06 16:11 | 34.28241 | -112.59088 | 26257 ft | 434 kts | 323° |
| 2026-05-06 16:11 | 34.29784 | -112.60648 | 26611 ft | 436 kts | 323° |
| 2026-05-06 16:11 | 34.32882 | -112.63779 | 27301 ft | 441 kts | 323° |
| 2026-05-06 16:12 | 34.35240 | -112.66171 | 27876 ft | 443 kts | 323° |
| 2026-05-06 16:12 | 34.37613 | -112.68578 | 28393 ft | 447 kts | 323° |
| 2026-05-06 16:12 | 34.39195 | -112.70182 | 28733 ft | 449 kts | 323° |
| 2026-05-06 16:12 | 34.41605 | -112.72627 | 29249 ft | 453 kts | 323° |
| 2026-05-06 16:13 | 34.44030 | -112.75091 | 29745 ft | 457 kts | 323° |
| 2026-05-06 16:13 | 34.46477 | -112.77579 | 30215 ft | 460 kts | 323° |
| 2026-05-06 16:13 | 34.48943 | -112.80087 | 30643 ft | 463 kts | 323° |
| 2026-05-06 16:13 | 34.51419 | -112.82609 | 31109 ft | 465 kts | 323° |
| 2026-05-06 16:14 | 34.53887 | -112.85126 | 31800 ft | 461 kts | 323° |
| 2026-05-06 16:14 | 34.56337 | -112.87626 | 32523 ft | 458 kts | 322° |
| 2026-05-06 16:14 | 34.58762 | -112.90099 | 33160 ft | 456 kts | 322° |
| 2026-05-06 16:14 | 34.61182 | -112.92570 | 33791 ft | 449 kts | 322° |
| 2026-05-06 16:15 | 34.63558 | -112.94999 | 33993 ft | 457 kts | 321° |
| 2026-05-06 16:15 | 34.66056 | -112.97552 | 33999 ft | 470 kts | 321° |
| 2026-05-06 16:15 | 34.68557 | -113.00111 | 34000 ft | 481 kts | 321° |
| 2026-05-06 16:15 | 34.71146 | -113.02766 | 34008 ft | 492 kts | 321° |
| 2026-05-06 16:16 | 34.76376 | -113.08347 | 33996 ft | 507 kts | 317° |
| 2026-05-06 16:16 | 34.81266 | -113.14627 | 33995 ft | 513 kts | 316° |
| 2026-05-06 16:17 | 34.86229 | -113.20873 | 34000 ft | 513 kts | 317° |
| 2026-05-06 16:17 | 34.91143 | -113.27134 | 33997 ft | 514 kts | 316° |
| 2026-05-06 16:18 | 34.96070 | -113.33401 | 33992 ft | 510 kts | 317° |
| 2026-05-06 16:18 | 35.01169 | -113.39396 | 33977 ft | 507 kts | 323° |
| 2026-05-06 16:19 | 35.03885 | -113.42096 | 33810 ft | 495 kts | 324° |
| 2026-05-06 16:19 | 35.06492 | -113.44690 | 33155 ft | 470 kts | 325° |
| 2026-05-06 16:19 | 35.08951 | -113.47184 | 32553 ft | 451 kts | 325° |
| 2026-05-06 16:19 | 35.11352 | -113.49619 | 31958 ft | 446 kts | 326° |
| 2026-05-06 16:20 | 35.13755 | -113.52025 | 31373 ft | 448 kts | 326° |
| 2026-05-06 16:20 | 35.16182 | -113.54455 | 30801 ft | 453 kts | 326° |
| 2026-05-06 16:20 | 35.18618 | -113.56921 | 30212 ft | 456 kts | 326° |
| 2026-05-06 16:20 | 35.21039 | -113.59389 | 29578 ft | 449 kts | 326° |
| 2026-05-06 16:21 | 35.23433 | -113.61809 | 29003 ft | 445 kts | 326° |
| 2026-05-06 16:21 | 35.25788 | -113.64179 | 28429 ft | 441 kts | 325° |
| 2026-05-06 16:21 | 35.28142 | -113.66563 | 27857 ft | 438 kts | 325° |
| 2026-05-06 16:21 | 35.30479 | -113.68939 | 27287 ft | 434 kts | 325° |
| 2026-05-06 16:22 | 35.32791 | -113.71288 | 26728 ft | 428 kts | 324° |
| 2026-05-06 16:22 | 35.35076 | -113.73604 | 26166 ft | 425 kts | 324° |
| 2026-05-06 16:22 | 35.37346 | -113.75908 | 25601 ft | 422 kts | 324° |
| 2026-05-06 16:22 | 35.39599 | -113.78202 | 25054 ft | 419 kts | 324° |
| 2026-05-06 16:23 | 35.41840 | -113.80484 | 24489 ft | 416 kts | 324° |
| 2026-05-06 16:23 | 35.44064 | -113.82747 | 23949 ft | 413 kts | 324° |
| 2026-05-06 16:23 | 35.46271 | -113.84997 | 23366 ft | 410 kts | 324° |
| 2026-05-06 16:23 | 35.48427 | -113.87197 | 22814 ft | 406 kts | 323° |
| 2026-05-06 16:24 | 35.50590 | -113.89405 | 22274 ft | 403 kts | 323° |
| 2026-05-06 16:24 | 35.52739 | -113.91599 | 21726 ft | 400 kts | 323° |
| 2026-05-06 16:24 | 35.54870 | -113.93778 | 21190 ft | 397 kts | 323° |
| 2026-05-06 16:24 | 35.56985 | -113.95941 | 20657 ft | 394 kts | 323° |
| 2026-05-06 16:25 | 35.59086 | -113.98092 | 20126 ft | 391 kts | 323° |
| 2026-05-06 16:25 | 35.61168 | -114.00224 | 19600 ft | 388 kts | 323° |
| 2026-05-06 16:25 | 35.63233 | -114.02341 | 19088 ft | 383 kts | 323° |
| 2026-05-06 16:25 | 35.65217 | -114.04383 | 18594 ft | 361 kts | 323° |
| 2026-05-06 16:26 | 35.67095 | -114.06313 | 18106 ft | 342 kts | 323° |
| 2026-05-06 16:26 | 35.68874 | -114.08138 | 17645 ft | 324 kts | 324° |
| 2026-05-06 16:26 | 35.70573 | -114.09882 | 17151 ft | 312 kts | 324° |
| 2026-05-06 16:26 | 35.72221 | -114.11575 | 16738 ft | 306 kts | 324° |
| 2026-05-06 16:27 | 35.73836 | -114.13234 | 16343 ft | 306 kts | 324° |
| 2026-05-06 16:27 | 35.75451 | -114.14943 | 15925 ft | 307 kts | 320° |
| 2026-05-06 16:27 | 35.76661 | -114.17120 | 15586 ft | 309 kts | 302° |
| 2026-05-06 16:27 | 35.77676 | -114.19457 | 15323 ft | 309 kts | 302° |
| 2026-05-06 16:28 | 35.78710 | -114.21783 | 15030 ft | 310 kts | 302° |
| 2026-05-06 16:28 | 35.79749 | -114.24113 | 14726 ft | 309 kts | 302° |
| 2026-05-06 16:28 | 35.80778 | -114.26445 | 14414 ft | 308 kts | 302° |
| 2026-05-06 16:28 | 35.81796 | -114.28760 | 14111 ft | 307 kts | 301° |
| 2026-05-06 16:29 | 35.82813 | -114.31067 | 13807 ft | 305 kts | 301° |
| 2026-05-06 16:29 | 35.83839 | -114.33347 | 13473 ft | 302 kts | 303° |
| 2026-05-06 16:29 | 35.85075 | -114.35407 | 13178 ft | 298 kts | 310° |
| 2026-05-06 16:29 | 35.86344 | -114.37395 | 12894 ft | 298 kts | 310° |
| 2026-05-06 16:30 | 35.87622 | -114.39437 | 12588 ft | 296 kts | 310° |
| 2026-05-06 16:30 | 35.88451 | -114.40775 | 12405 ft | 296 kts | 310° |
| 2026-05-06 16:30 | 35.90107 | -114.43436 | 12027 ft | 294 kts | 310° |
| 2026-05-06 16:30 | 35.91353 | -114.45429 | 11740 ft | 293 kts | 310° |
| 2026-05-06 16:31 | 35.92592 | -114.47414 | 11454 ft | 291 kts | 310° |
| 2026-05-06 16:31 | 35.93818 | -114.49385 | 11181 ft | 290 kts | 310° |
| 2026-05-06 16:31 | 35.95046 | -114.51357 | 10902 ft | 288 kts | 310° |
| 2026-05-06 16:31 | 35.96266 | -114.53319 | 10625 ft | 287 kts | 310° |
| 2026-05-06 16:32 | 35.97474 | -114.55279 | 10349 ft | 286 kts | 310° |
| 2026-05-06 16:32 | 35.98670 | -114.57227 | 10080 ft | 284 kts | 310° |
| 2026-05-06 16:32 | 35.99870 | -114.59175 | 9792 ft | 283 kts | 310° |
| 2026-05-06 16:32 | 36.01043 | -114.61079 | 9504 ft | 282 kts | 310° |
| 2026-05-06 16:33 | 36.02224 | -114.62999 | 9215 ft | 280 kts | 309° |
| 2026-05-06 16:33 | 36.03382 | -114.64916 | 8950 ft | 277 kts | 309° |
| 2026-05-06 16:33 | 36.04100 | -114.66217 | 8766 ft | 273 kts | 304° |